sensor_id;sensor_type;location;lat;lon;timestamp;temperature;humidity
20102;DHT22;10210;52.284;9.892;2022-08-24T00:01:02;24.30;89.20
20102;DHT22;10210;52.284;9.892;2022-08-24T00:03:28;24.30;89.40
20102;DHT22;10210;52.284;9.892;2022-08-24T00:05:54;24.30;89.50
20102;DHT22;10210;52.284;9.892;2022-08-24T00:08:20;24.20;89.70
20102;DHT22;10210;52.284;9.892;2022-08-24T00:10:46;24.20;89.90
20102;DHT22;10210;52.284;9.892;2022-08-24T00:13:12;24.10;89.90
20102;DHT22;10210;52.284;9.892;2022-08-24T00:15:38;24.10;90.10
20102;DHT22;10210;52.284;9.892;2022-08-24T00:18:04;24.00;90.10
20102;DHT22;10210;52.284;9.892;2022-08-24T00:20:30;24.00;90.10
20102;DHT22;10210;52.284;9.892;2022-08-24T00:22:56;24.00;90.20
20102;DHT22;10210;52.284;9.892;2022-08-24T00:25:22;23.90;90.20
20102;DHT22;10210;52.284;9.892;2022-08-24T00:27:48;23.90;90.20
20102;DHT22;10210;52.284;9.892;2022-08-24T00:30:16;23.90;90.40
20102;DHT22;10210;52.284;9.892;2022-08-24T00:32:44;23.90;90.40
20102;DHT22;10210;52.284;9.892;2022-08-24T00:35:14;23.90;90.40
20102;DHT22;10210;52.284;9.892;2022-08-24T00:37:43;23.80;90.50
20102;DHT22;10210;52.284;9.892;2022-08-24T00:40:18;23.80;90.50
20102;DHT22;10210;52.284;9.892;2022-08-24T00:42:49;23.80;90.80
20102;DHT22;10210;52.284;9.892;2022-08-24T00:45:17;23.80;90.70
20102;DHT22;10210;52.284;9.892;2022-08-24T00:47:48;23.70;90.80
20102;DHT22;10210;52.284;9.892;2022-08-24T00:50:24;23.70;91.00
20102;DHT22;10210;52.284;9.892;2022-08-24T00:53:02;23.60;91.10
20102;DHT22;10210;52.284;9.892;2022-08-24T00:55:50;23.60;90.90
20102;DHT22;10210;52.284;9.892;2022-08-24T00:58:22;23.60;91.30
20102;DHT22;10210;52.284;9.892;2022-08-24T01:00:57;23.60;91.10
20102;DHT22;10210;52.284;9.892;2022-08-24T01:03:26;23.50;91.10
20102;DHT22;10210;52.284;9.892;2022-08-24T01:05:53;23.50;91.20
20102;DHT22;10210;52.284;9.892;2022-08-24T01:08:20;23.40;91.20
20102;DHT22;10210;52.284;9.892;2022-08-24T01:10:51;23.40;91.30
20102;DHT22;10210;52.284;9.892;2022-08-24T01:13:21;23.30;91.60
20102;DHT22;10210;52.284;9.892;2022-08-24T01:15:52;23.30;91.70
20102;DHT22;10210;52.284;9.892;2022-08-24T01:18:24;23.20;91.80
20102;DHT22;10210;52.284;9.892;2022-08-24T01:24:34;23.20;92.40
20102;DHT22;10210;52.284;9.892;2022-08-24T01:27:01;23.20;91.90
20102;DHT22;10210;52.284;9.892;2022-08-24T01:29:28;23.10;92.00
20102;DHT22;10210;52.284;9.892;2022-08-24T01:31:57;23.10;92.10
20102;DHT22;10210;52.284;9.892;2022-08-24T01:34:23;23.10;92.10
20102;DHT22;10210;52.284;9.892;2022-08-24T01:36:54;23.10;92.20
20102;DHT22;10210;52.284;9.892;2022-08-24T01:39:28;23.10;92.20
20102;DHT22;10210;52.284;9.892;2022-08-24T01:41:57;23.10;92.40
20102;DHT22;10210;52.284;9.892;2022-08-24T01:44:25;23.10;92.30
20102;DHT22;10210;52.284;9.892;2022-08-24T01:46:53;23.00;92.40
20102;DHT22;10210;52.284;9.892;2022-08-24T01:49:27;23.00;92.50
20102;DHT22;10210;52.284;9.892;2022-08-24T01:51:54;23.00;92.40
20102;DHT22;10210;52.284;9.892;2022-08-24T01:54:21;23.00;92.30
20102;DHT22;10210;52.284;9.892;2022-08-24T01:56:47;23.00;92.40
20102;DHT22;10210;52.284;9.892;2022-08-24T01:59:13;23.00;92.40
20102;DHT22;10210;52.284;9.892;2022-08-24T02:01:55;23.00;92.60
20102;DHT22;10210;52.284;9.892;2022-08-24T02:04:27;23.00;92.90
20102;DHT22;10210;52.284;9.892;2022-08-24T02:06:52;23.00;92.50
20102;DHT22;10210;52.284;9.892;2022-08-24T02:09:19;23.00;92.50
20102;DHT22;10210;52.284;9.892;2022-08-24T02:11:47;23.00;92.60
20102;DHT22;10210;52.284;9.892;2022-08-24T02:14:13;23.00;92.60
20102;DHT22;10210;52.284;9.892;2022-08-24T02:16:39;23.00;92.70
20102;DHT22;10210;52.284;9.892;2022-08-24T02:19:05;22.90;92.80
20102;DHT22;10210;52.284;9.892;2022-08-24T02:21:31;22.90;92.70
20102;DHT22;10210;52.284;9.892;2022-08-24T02:23:56;22.90;92.70
20102;DHT22;10210;52.284;9.892;2022-08-24T02:26:22;22.90;92.80
20102;DHT22;10210;52.284;9.892;2022-08-24T02:28:48;22.90;92.80
20102;DHT22;10210;52.284;9.892;2022-08-24T02:31:14;22.90;93.20
20102;DHT22;10210;52.284;9.892;2022-08-24T02:33:40;22.80;92.80
20102;DHT22;10210;52.284;9.892;2022-08-24T02:36:08;22.80;92.80
20102;DHT22;10210;52.284;9.892;2022-08-24T02:38:36;22.80;92.90
20102;DHT22;10210;52.284;9.892;2022-08-24T02:41:02;22.80;93.00
20102;DHT22;10210;52.284;9.892;2022-08-24T02:43:28;22.80;93.10
20102;DHT22;10210;52.284;9.892;2022-08-24T02:45:53;22.80;93.00
20102;DHT22;10210;52.284;9.892;2022-08-24T02:48:20;22.80;93.10
20102;DHT22;10210;52.284;9.892;2022-08-24T02:50:48;22.80;93.10
20102;DHT22;10210;52.284;9.892;2022-08-24T02:53:17;22.80;93.30
20102;DHT22;10210;52.284;9.892;2022-08-24T02:55:45;22.80;93.20
20102;DHT22;10210;52.284;9.892;2022-08-24T02:58:13;22.80;93.20
20102;DHT22;10210;52.284;9.892;2022-08-24T03:00:42;22.80;93.40
20102;DHT22;10210;52.284;9.892;2022-08-24T03:03:09;22.80;93.50
20102;DHT22;10210;52.284;9.892;2022-08-24T03:05:36;22.80;93.60
20102;DHT22;10210;52.284;9.892;2022-08-24T03:08:02;22.80;93.60
20102;DHT22;10210;52.284;9.892;2022-08-24T03:10:29;22.80;93.70
20102;DHT22;10210;52.284;9.892;2022-08-24T03:12:55;22.90;93.70
20102;DHT22;10210;52.284;9.892;2022-08-24T03:15:21;22.80;93.90
20102;DHT22;10210;52.284;9.892;2022-08-24T03:17:48;22.80;93.90
20102;DHT22;10210;52.284;9.892;2022-08-24T03:20:17;22.80;94.00
20102;DHT22;10210;52.284;9.892;2022-08-24T03:22:44;22.80;94.20
20102;DHT22;10210;52.284;9.892;2022-08-24T03:25:13;22.80;94.10
20102;DHT22;10210;52.284;9.892;2022-08-24T03:27:40;22.80;94.30
20102;DHT22;10210;52.284;9.892;2022-08-24T03:30:07;22.80;94.20
20102;DHT22;10210;52.284;9.892;2022-08-24T03:32:37;22.80;94.40
20102;DHT22;10210;52.284;9.892;2022-08-24T03:35:04;22.80;94.50
20102;DHT22;10210;52.284;9.892;2022-08-24T03:37:30;22.70;94.50
20102;DHT22;10210;52.284;9.892;2022-08-24T03:39:57;22.70;94.60
20102;DHT22;10210;52.284;9.892;2022-08-24T03:42:23;22.60;94.70
20102;DHT22;10210;52.284;9.892;2022-08-24T03:44:49;22.60;94.80
20102;DHT22;10210;52.284;9.892;2022-08-24T03:47:14;22.60;94.90
20102;DHT22;10210;52.284;9.892;2022-08-24T03:49:40;22.50;94.90
20102;DHT22;10210;52.284;9.892;2022-08-24T03:52:06;22.50;94.90
20102;DHT22;10210;52.284;9.892;2022-08-24T03:54:32;22.50;95.10
20102;DHT22;10210;52.284;9.892;2022-08-24T03:56:58;22.40;95.30
20102;DHT22;10210;52.284;9.892;2022-08-24T03:59:24;22.40;95.20
20102;DHT22;10210;52.284;9.892;2022-08-24T04:01:50;22.40;95.40
20102;DHT22;10210;52.284;9.892;2022-08-24T04:04:16;22.40;95.40
20102;DHT22;10210;52.284;9.892;2022-08-24T04:06:42;22.30;95.50
20102;DHT22;10210;52.284;9.892;2022-08-24T04:09:11;22.30;95.50
20102;DHT22;10210;52.284;9.892;2022-08-24T04:11:37;22.30;95.60
20102;DHT22;10210;52.284;9.892;2022-08-24T04:14:03;22.20;95.60
20102;DHT22;10210;52.284;9.892;2022-08-24T04:16:29;22.20;95.50
20102;DHT22;10210;52.284;9.892;2022-08-24T04:18:57;22.20;95.60
20102;DHT22;10210;52.284;9.892;2022-08-24T04:21:27;22.20;95.90
20102;DHT22;10210;52.284;9.892;2022-08-24T04:23:56;22.10;95.90
20102;DHT22;10210;52.284;9.892;2022-08-24T04:26:24;22.10;95.80
20102;DHT22;10210;52.284;9.892;2022-08-24T04:28:52;22.10;96.00
20102;DHT22;10210;52.284;9.892;2022-08-24T04:31:19;22.10;96.00
20102;DHT22;10210;52.284;9.892;2022-08-24T04:33:47;22.00;96.00
20102;DHT22;10210;52.284;9.892;2022-08-24T04:36:18;22.00;96.20
20102;DHT22;10210;52.284;9.892;2022-08-24T04:38:47;22.00;96.20
20102;DHT22;10210;52.284;9.892;2022-08-24T04:41:15;21.90;96.30
20102;DHT22;10210;52.284;9.892;2022-08-24T04:43:45;21.90;96.30
20102;DHT22;10210;52.284;9.892;2022-08-24T04:46:14;21.90;96.40
20102;DHT22;10210;52.284;9.892;2022-08-24T04:48:44;21.90;96.50
20102;DHT22;10210;52.284;9.892;2022-08-24T04:51:14;22.00;96.70
20102;DHT22;10210;52.284;9.892;2022-08-24T04:53:43;22.00;96.70
20102;DHT22;10210;52.284;9.892;2022-08-24T04:56:17;22.00;96.70
20102;DHT22;10210;52.284;9.892;2022-08-24T04:58:44;22.00;97.20
20102;DHT22;10210;52.284;9.892;2022-08-24T05:01:15;22.00;96.90
20102;DHT22;10210;52.284;9.892;2022-08-24T05:03:44;21.90;97.30
20102;DHT22;10210;52.284;9.892;2022-08-24T05:06:16;21.90;97.30
20102;DHT22;10210;52.284;9.892;2022-08-24T05:08:43;22.00;97.50
20102;DHT22;10210;52.284;9.892;2022-08-24T05:11:11;21.90;97.90
20102;DHT22;10210;52.284;9.892;2022-08-24T05:13:38;21.90;97.60
20102;DHT22;10210;52.284;9.892;2022-08-24T05:16:09;22.00;97.80
20102;DHT22;10210;52.284;9.892;2022-08-24T05:18:37;22.00;98.30
20102;DHT22;10210;52.284;9.892;2022-08-24T05:21:07;22.00;98.50
20102;DHT22;10210;52.284;9.892;2022-08-24T05:23:35;22.00;98.40
20102;DHT22;10210;52.284;9.892;2022-08-24T05:26:07;22.00;98.40
20102;DHT22;10210;52.284;9.892;2022-08-24T05:28:35;22.00;98.60
20102;DHT22;10210;52.284;9.892;2022-08-24T05:31:14;22.00;98.60
20102;DHT22;10210;52.284;9.892;2022-08-24T05:33:42;22.10;99.50
20102;DHT22;10210;52.284;9.892;2022-08-24T05:36:24;22.10;99.00
20102;DHT22;10210;52.284;9.892;2022-08-24T05:38:56;22.10;99.70
20102;DHT22;10210;52.284;9.892;2022-08-24T05:41:23;22.10;99.30
20102;DHT22;10210;52.284;9.892;2022-08-24T05:43:49;22.10;99.40
20102;DHT22;10210;52.284;9.892;2022-08-24T05:46:17;22.10;99.40
20102;DHT22;10210;52.284;9.892;2022-08-24T05:48:43;22.20;99.50
20102;DHT22;10210;52.284;9.892;2022-08-24T05:51:10;22.20;99.60
20102;DHT22;10210;52.284;9.892;2022-08-24T05:53:38;22.20;99.90
20102;DHT22;10210;52.284;9.892;2022-08-24T05:56:10;22.30;99.90
20102;DHT22;10210;52.284;9.892;2022-08-24T05:58:38;22.30;99.90
20102;DHT22;10210;52.284;9.892;2022-08-24T06:01:09;22.30;99.90
20102;DHT22;10210;52.284;9.892;2022-08-24T06:03:38;22.30;99.90
20102;DHT22;10210;52.284;9.892;2022-08-24T06:06:05;22.50;99.90
20102;DHT22;10210;52.284;9.892;2022-08-24T06:08:34;22.50;99.90
20102;DHT22;10210;52.284;9.892;2022-08-24T06:11:01;22.50;99.90
20102;DHT22;10210;52.284;9.892;2022-08-24T06:13:28;22.60;99.90
20102;DHT22;10210;52.284;9.892;2022-08-24T06:16:11;22.70;99.90
20102;DHT22;10210;52.284;9.892;2022-08-24T06:18:39;22.70;99.90
20102;DHT22;10210;52.284;9.892;2022-08-24T06:21:10;22.80;99.90
20102;DHT22;10210;52.284;9.892;2022-08-24T06:23:38;22.80;99.90
20102;DHT22;10210;52.284;9.892;2022-08-24T06:26:06;22.90;99.90
20102;DHT22;10210;52.284;9.892;2022-08-24T06:28:52;23.00;99.90
20102;DHT22;10210;52.284;9.892;2022-08-24T06:31:19;23.00;99.90
20102;DHT22;10210;52.284;9.892;2022-08-24T06:33:46;23.20;99.90
20102;DHT22;10210;52.284;9.892;2022-08-24T06:36:12;23.20;99.90
20102;DHT22;10210;52.284;9.892;2022-08-24T06:38:38;23.30;99.90
20102;DHT22;10210;52.284;9.892;2022-08-24T06:41:04;23.30;99.90
20102;DHT22;10210;52.284;9.892;2022-08-24T06:43:31;23.50;99.90
20102;DHT22;10210;52.284;9.892;2022-08-24T06:45:58;23.50;99.90
20102;DHT22;10210;52.284;9.892;2022-08-24T06:48:24;23.60;99.90
20102;DHT22;10210;52.284;9.892;2022-08-24T06:50:51;23.70;99.90
20102;DHT22;10210;52.284;9.892;2022-08-24T06:53:18;23.80;99.90
20102;DHT22;10210;52.284;9.892;2022-08-24T06:55:51;23.80;99.90
20102;DHT22;10210;52.284;9.892;2022-08-24T06:58:19;23.90;99.90
20102;DHT22;10210;52.284;9.892;2022-08-24T07:00:46;24.00;99.90
20102;DHT22;10210;52.284;9.892;2022-08-24T07:03:12;24.10;99.90
20102;DHT22;10210;52.284;9.892;2022-08-24T07:05:39;24.20;99.90
20102;DHT22;10210;52.284;9.892;2022-08-24T07:08:06;24.30;99.90
20102;DHT22;10210;52.284;9.892;2022-08-24T07:10:33;24.30;99.90
20102;DHT22;10210;52.284;9.892;2022-08-24T07:12:59;24.50;99.90
20102;DHT22;10210;52.284;9.892;2022-08-24T07:15:25;24.50;99.90
20102;DHT22;10210;52.284;9.892;2022-08-24T07:17:51;24.60;99.90
20102;DHT22;10210;52.284;9.892;2022-08-24T07:20:17;24.70;99.90
20102;DHT22;10210;52.284;9.892;2022-08-24T07:22:43;24.80;99.90
20102;DHT22;10210;52.284;9.892;2022-08-24T07:25:11;24.90;99.90
20102;DHT22;10210;52.284;9.892;2022-08-24T07:27:37;25.00;99.90
20102;DHT22;10210;52.284;9.892;2022-08-24T07:30:05;25.10;99.90
20102;DHT22;10210;52.284;9.892;2022-08-24T07:32:31;25.30;99.90
20102;DHT22;10210;52.284;9.892;2022-08-24T07:34:58;25.50;99.90
20102;DHT22;10210;52.284;9.892;2022-08-24T07:37:24;25.70;99.90
20102;DHT22;10210;52.284;9.892;2022-08-24T07:39:51;26.10;99.90
20102;DHT22;10210;52.284;9.892;2022-08-24T07:42:17;26.50;99.90
20102;DHT22;10210;52.284;9.892;2022-08-24T07:44:43;26.90;99.90
20102;DHT22;10210;52.284;9.892;2022-08-24T07:47:08;27.40;99.90
20102;DHT22;10210;52.284;9.892;2022-08-24T07:49:34;27.80;99.90
20102;DHT22;10210;52.284;9.892;2022-08-24T07:52:00;28.20;99.40
20102;DHT22;10210;52.284;9.892;2022-08-24T07:54:26;28.50;98.60
20102;DHT22;10210;52.284;9.892;2022-08-24T07:56:54;28.90;98.00
20102;DHT22;10210;52.284;9.892;2022-08-24T07:59:20;29.20;97.30
20102;DHT22;10210;52.284;9.892;2022-08-24T08:01:47;29.60;96.60
20102;DHT22;10210;52.284;9.892;2022-08-24T08:04:13;29.80;96.50
20102;DHT22;10210;52.284;9.892;2022-08-24T08:06:41;30.10;95.90
20102;DHT22;10210;52.284;9.892;2022-08-24T08:09:07;30.30;95.30
20102;DHT22;10210;52.284;9.892;2022-08-24T08:11:33;30.50;95.00
20102;DHT22;10210;52.284;9.892;2022-08-24T08:13:59;30.80;94.40
20102;DHT22;10210;52.284;9.892;2022-08-24T08:16:25;31.00;94.30
20102;DHT22;10210;52.284;9.892;2022-08-24T08:18:51;31.20;94.00
20102;DHT22;10210;52.284;9.892;2022-08-24T08:21:17;31.50;93.70
20102;DHT22;10210;52.284;9.892;2022-08-24T08:24:03;31.60;92.90
20102;DHT22;10210;52.284;9.892;2022-08-24T08:26:47;31.80;93.00
20102;DHT22;10210;52.284;9.892;2022-08-24T08:29:15;32.00;92.00
20102;DHT22;10210;52.284;9.892;2022-08-24T08:31:42;32.20;91.70
20102;DHT22;10210;52.284;9.892;2022-08-24T08:34:09;32.40;91.50
20102;DHT22;10210;52.284;9.892;2022-08-24T08:36:36;32.40;90.70
20102;DHT22;10210;52.284;9.892;2022-08-24T08:39:06;32.60;90.70
20102;DHT22;10210;52.284;9.892;2022-08-24T08:47:10;32.90;89.90
20102;DHT22;10210;52.284;9.892;2022-08-24T08:50:15;33.00;89.30
20102;DHT22;10210;52.284;9.892;2022-08-24T08:56:08;33.20;88.30
20102;DHT22;10210;52.284;9.892;2022-08-24T09:05:38;33.50;85.20
20102;DHT22;10210;52.284;9.892;2022-08-24T09:16:53;33.80;83.30
20102;DHT22;10210;52.284;9.892;2022-08-24T09:20:08;33.80;83.50
20102;DHT22;10210;52.284;9.892;2022-08-24T09:22:39;33.80;81.50
20102;DHT22;10210;52.284;9.892;2022-08-24T09:25:34;33.80;81.90
20102;DHT22;10210;52.284;9.892;2022-08-24T09:28:20;33.80;81.30
20102;DHT22;10210;52.284;9.892;2022-08-24T09:31:26;33.80;81.40
20102;DHT22;10210;52.284;9.892;2022-08-24T09:37:04;33.80;80.80
20102;DHT22;10210;52.284;9.892;2022-08-24T09:46:49;33.80;79.60
20102;DHT22;10210;52.284;9.892;2022-08-24T10:13:00;33.80;78.00
20102;DHT22;10210;52.284;9.892;2022-08-24T10:15:44;33.80;78.00
20102;DHT22;10210;52.284;9.892;2022-08-24T10:18:46;33.80;77.70
20102;DHT22;10210;52.284;9.892;2022-08-24T10:27:20;33.70;76.30
20102;DHT22;10210;52.284;9.892;2022-08-24T10:30:23;33.70;76.40
20102;DHT22;10210;52.284;9.892;2022-08-24T10:45:31;33.50;75.40
20102;DHT22;10210;52.284;9.892;2022-08-24T10:50:58;33.40;73.10
20102;DHT22;10210;52.284;9.892;2022-08-24T10:53:38;33.40;73.10
20102;DHT22;10210;52.284;9.892;2022-08-24T10:56:12;33.40;74.60
20102;DHT22;10210;52.284;9.892;2022-08-24T11:04:04;33.40;72.90
20102;DHT22;10210;52.284;9.892;2022-08-24T11:07:01;33.40;73.10
20102;DHT22;10210;52.284;9.892;2022-08-24T11:09:48;33.40;72.90
20102;DHT22;10210;52.284;9.892;2022-08-24T11:12:22;33.40;72.90
20102;DHT22;10210;52.284;9.892;2022-08-24T11:15:02;33.50;73.50
20102;DHT22;10210;52.284;9.892;2022-08-24T11:17:33;33.50;72.60
20102;DHT22;10210;52.284;9.892;2022-08-24T11:20:00;33.50;73.10
20102;DHT22;10210;52.284;9.892;2022-08-24T11:22:40;33.50;71.20
20102;DHT22;10210;52.284;9.892;2022-08-24T11:25:29;33.50;70.80
20102;DHT22;10210;52.284;9.892;2022-08-24T11:28:06;33.50;71.60
20102;DHT22;10210;52.284;9.892;2022-08-24T11:30:46;33.60;72.10
20102;DHT22;10210;52.284;9.892;2022-08-24T11:33:49;33.60;71.70
20102;DHT22;10210;52.284;9.892;2022-08-24T11:36:27;33.70;71.80
20102;DHT22;10210;52.284;9.892;2022-08-24T11:42:09;33.70;71.50
20102;DHT22;10210;52.284;9.892;2022-08-24T11:44:54;33.80;71.30
20102;DHT22;10210;52.284;9.892;2022-08-24T11:47:37;33.80;71.90
20102;DHT22;10210;52.284;9.892;2022-08-24T11:56:45;34.00;71.70
20102;DHT22;10210;52.284;9.892;2022-08-24T12:02:22;34.10;71.20
20102;DHT22;10210;52.284;9.892;2022-08-24T12:08:16;34.30;72.10
20102;DHT22;10210;52.284;9.892;2022-08-24T12:14:19;34.40;71.20
20102;DHT22;10210;52.284;9.892;2022-08-24T12:16:57;34.40;70.80
20102;DHT22;10210;52.284;9.892;2022-08-24T12:19:46;34.40;70.40
20102;DHT22;10210;52.284;9.892;2022-08-24T12:22:17;34.50;70.50
20102;DHT22;10210;52.284;9.892;2022-08-24T12:24:50;34.50;70.50
20102;DHT22;10210;52.284;9.892;2022-08-24T12:27:31;34.60;70.90
20102;DHT22;10210;52.284;9.892;2022-08-24T12:30:07;34.70;70.90
20102;DHT22;10210;52.284;9.892;2022-08-24T12:32:41;34.80;69.90
20102;DHT22;10210;52.284;9.892;2022-08-24T12:36:02;34.80;70.30
20102;DHT22;10210;52.284;9.892;2022-08-24T12:43:36;35.00;69.40
20102;DHT22;10210;52.284;9.892;2022-08-24T12:46:13;35.10;69.70
20102;DHT22;10210;52.284;9.892;2022-08-24T12:49:06;35.20;69.60
20102;DHT22;10210;52.284;9.892;2022-08-24T13:00:38;35.30;67.80
20102;DHT22;10210;52.284;9.892;2022-08-24T13:03:33;35.30;67.80
20102;DHT22;10210;52.284;9.892;2022-08-24T13:06:24;35.30;67.30
20102;DHT22;10210;52.284;9.892;2022-08-24T13:09:08;35.40;66.70
20102;DHT22;10210;52.284;9.892;2022-08-24T13:11:39;35.40;66.40
20102;DHT22;10210;52.284;9.892;2022-08-24T13:14:16;35.50;67.20
20102;DHT22;10210;52.284;9.892;2022-08-24T13:21:51;35.60;66.70
20102;DHT22;10210;52.284;9.892;2022-08-24T13:24:46;35.60;66.60
20102;DHT22;10210;52.284;9.892;2022-08-24T13:30:03;35.80;66.10
20102;DHT22;10210;52.284;9.892;2022-08-24T13:33:08;35.80;65.50
20102;DHT22;10210;52.284;9.892;2022-08-24T13:35:54;35.80;65.60
20102;DHT22;10210;52.284;9.892;2022-08-24T13:38:30;35.90;64.50
20102;DHT22;10210;52.284;9.892;2022-08-24T13:41:16;35.90;65.20
20102;DHT22;10210;52.284;9.892;2022-08-24T13:44:08;36.00;65.30
20102;DHT22;10210;52.284;9.892;2022-08-24T13:49:27;36.00;64.20
20102;DHT22;10210;52.284;9.892;2022-08-24T13:56:11;36.10;64.30
20102;DHT22;10210;52.284;9.892;2022-08-24T13:58:52;36.10;64.20
20102;DHT22;10210;52.284;9.892;2022-08-24T14:04:42;36.10;63.20
20102;DHT22;10210;52.284;9.892;2022-08-24T14:07:20;36.00;63.50
20102;DHT22;10210;52.284;9.892;2022-08-24T14:15:14;36.00;64.80
20102;DHT22;10210;52.284;9.892;2022-08-24T14:20:52;36.10;64.20
20102;DHT22;10210;52.284;9.892;2022-08-24T14:29:29;36.10;64.00
20102;DHT22;10210;52.284;9.892;2022-08-24T14:34:57;36.00;63.70
20102;DHT22;10210;52.284;9.892;2022-08-24T14:49:55;35.90;63.80
20102;DHT22;10210;52.284;9.892;2022-08-24T14:58:31;35.90;64.70
20102;DHT22;10210;52.284;9.892;2022-08-24T15:01:41;35.90;64.00
20102;DHT22;10210;52.284;9.892;2022-08-24T15:04:26;35.90;63.50
20102;DHT22;10210;52.284;9.892;2022-08-24T15:07:33;35.90;64.10
20102;DHT22;10210;52.284;9.892;2022-08-24T15:10:08;35.90;63.30
20102;DHT22;10210;52.284;9.892;2022-08-24T15:12:50;35.90;63.50
20102;DHT22;10210;52.284;9.892;2022-08-24T15:15:42;35.90;63.30
20102;DHT22;10210;52.284;9.892;2022-08-24T15:21:11;35.90;63.90
20102;DHT22;10210;52.284;9.892;2022-08-24T15:27:10;35.90;63.50
20102;DHT22;10210;52.284;9.892;2022-08-24T15:29:54;35.90;63.40
20102;DHT22;10210;52.284;9.892;2022-08-24T15:33:20;36.00;63.40
20102;DHT22;10210;52.284;9.892;2022-08-24T15:35:44;36.00;62.90
20102;DHT22;10210;52.284;9.892;2022-08-24T15:38:21;35.90;62.20
20102;DHT22;10210;52.284;9.892;2022-08-24T15:49:17;35.70;62.60
20102;DHT22;10210;52.284;9.892;2022-08-24T15:51:51;35.70;62.80
20102;DHT22;10210;52.284;9.892;2022-08-24T15:56:53;35.70;62.70
20102;DHT22;10210;52.284;9.892;2022-08-24T16:05:44;35.60;62.60
20102;DHT22;10210;52.284;9.892;2022-08-24T16:10:45;35.50;62.40
20102;DHT22;10210;52.284;9.892;2022-08-24T16:15:52;35.40;62.10
20102;DHT22;10210;52.284;9.892;2022-08-24T16:18:45;35.30;62.10
20102;DHT22;10210;52.284;9.892;2022-08-24T16:24:33;35.30;62.40
20102;DHT22;10210;52.284;9.892;2022-08-24T16:27:02;35.20;62.10
20102;DHT22;10210;52.284;9.892;2022-08-24T16:32:25;35.10;62.20
20102;DHT22;10210;52.284;9.892;2022-08-24T16:37:42;35.00;61.40
20102;DHT22;10210;52.284;9.892;2022-08-24T16:40:08;34.90;62.10
20102;DHT22;10210;52.284;9.892;2022-08-24T16:42:35;34.80;61.90
20102;DHT22;10210;52.284;9.892;2022-08-24T16:45:04;34.80;62.00
20102;DHT22;10210;52.284;9.892;2022-08-24T16:47:38;34.70;62.10
20102;DHT22;10210;52.284;9.892;2022-08-24T16:50:05;34.60;62.10
20102;DHT22;10210;52.284;9.892;2022-08-24T16:52:31;34.60;62.40
20102;DHT22;10210;52.284;9.892;2022-08-24T16:54:57;34.50;62.20
20102;DHT22;10210;52.284;9.892;2022-08-24T16:57:27;34.40;62.20
20102;DHT22;10210;52.284;9.892;2022-08-24T16:59:55;34.40;62.30
20102;DHT22;10210;52.284;9.892;2022-08-24T17:02:24;34.30;62.10
20102;DHT22;10210;52.284;9.892;2022-08-24T17:04:52;34.20;62.00
20102;DHT22;10210;52.284;9.892;2022-08-24T17:07:25;34.20;62.00
20102;DHT22;10210;52.284;9.892;2022-08-24T17:09:56;34.20;62.20
20102;DHT22;10210;52.284;9.892;2022-08-24T17:12:25;34.10;62.30
20102;DHT22;10210;52.284;9.892;2022-08-24T17:14:51;34.10;62.50
20102;DHT22;10210;52.284;9.892;2022-08-24T17:17:19;34.00;63.20
20102;DHT22;10210;52.284;9.892;2022-08-24T17:19:47;33.90;62.40
20102;DHT22;10210;52.284;9.892;2022-08-24T17:22:14;33.90;62.50
20102;DHT22;10210;52.284;9.892;2022-08-24T17:24:47;33.90;62.50
20102;DHT22;10210;52.284;9.892;2022-08-24T17:27:13;33.80;62.40
20102;DHT22;10210;52.284;9.892;2022-08-24T17:29:41;33.80;62.50
20102;DHT22;10210;52.284;9.892;2022-08-24T17:32:09;33.70;62.90
20102;DHT22;10210;52.284;9.892;2022-08-24T17:34:35;33.70;62.90
20102;DHT22;10210;52.284;9.892;2022-08-24T17:37:21;33.60;63.00
20102;DHT22;10210;52.284;9.892;2022-08-24T17:39:53;33.50;63.60
20102;DHT22;10210;52.284;9.892;2022-08-24T17:42:21;33.50;63.50
20102;DHT22;10210;52.284;9.892;2022-08-24T17:44:46;33.50;63.40
20102;DHT22;10210;52.284;9.892;2022-08-24T17:47:21;33.40;63.70
20102;DHT22;10210;52.284;9.892;2022-08-24T17:49:47;33.40;64.00
20102;DHT22;10210;52.284;9.892;2022-08-24T17:52:13;33.40;64.10
20102;DHT22;10210;52.284;9.892;2022-08-24T17:54:38;33.30;64.10
20102;DHT22;10210;52.284;9.892;2022-08-24T17:57:04;33.20;64.20
20102;DHT22;10210;52.284;9.892;2022-08-24T17:59:33;33.20;64.40
20102;DHT22;10210;52.284;9.892;2022-08-24T18:02:10;33.10;64.60
20102;DHT22;10210;52.284;9.892;2022-08-24T18:04:37;33.10;64.80
20102;DHT22;10210;52.284;9.892;2022-08-24T18:07:07;33.00;64.80
20102;DHT22;10210;52.284;9.892;2022-08-24T18:09:39;33.00;65.20
20102;DHT22;10210;52.284;9.892;2022-08-24T18:12:10;32.90;66.00
20102;DHT22;10210;52.284;9.892;2022-08-24T18:14:36;32.80;65.20
20102;DHT22;10210;52.284;9.892;2022-08-24T18:17:06;32.80;65.30
20102;DHT22;10210;52.284;9.892;2022-08-24T18:19:34;32.70;65.70
20102;DHT22;10210;52.284;9.892;2022-08-24T18:22:01;32.60;65.80
20102;DHT22;10210;52.284;9.892;2022-08-24T18:24:28;32.60;65.80
20102;DHT22;10210;52.284;9.892;2022-08-24T18:26:59;32.50;66.10
20102;DHT22;10210;52.284;9.892;2022-08-24T18:29:28;32.40;66.20
20102;DHT22;10210;52.284;9.892;2022-08-24T18:31:56;32.40;66.40
20102;DHT22;10210;52.284;9.892;2022-08-24T18:34:22;32.40;66.60
20102;DHT22;10210;52.284;9.892;2022-08-24T18:36:48;32.30;66.70
20102;DHT22;10210;52.284;9.892;2022-08-24T18:39:14;32.30;67.10
20102;DHT22;10210;52.284;9.892;2022-08-24T18:41:42;32.30;67.10
20102;DHT22;10210;52.284;9.892;2022-08-24T18:44:10;32.20;67.20
20102;DHT22;10210;52.284;9.892;2022-08-24T18:46:37;32.20;67.20
20102;DHT22;10210;52.284;9.892;2022-08-24T18:49:05;32.10;67.30
20102;DHT22;10210;52.284;9.892;2022-08-24T18:51:33;32.10;67.60
20102;DHT22;10210;52.284;9.892;2022-08-24T18:54:25;32.10;67.90
20102;DHT22;10210;52.284;9.892;2022-08-24T18:56:50;32.00;67.90
20102;DHT22;10210;52.284;9.892;2022-08-24T18:59:18;32.00;68.10
20102;DHT22;10210;52.284;9.892;2022-08-24T19:01:48;31.90;68.10
20102;DHT22;10210;52.284;9.892;2022-08-24T19:04:42;31.90;68.50
20102;DHT22;10210;52.284;9.892;2022-08-24T19:07:10;31.80;69.00
20102;DHT22;10210;52.284;9.892;2022-08-24T19:09:37;31.70;68.70
20102;DHT22;10210;52.284;9.892;2022-08-24T19:12:03;31.70;68.90
20102;DHT22;10210;52.284;9.892;2022-08-24T19:14:30;31.60;69.10
20102;DHT22;10210;52.284;9.892;2022-08-24T19:16:56;31.50;69.40
20102;DHT22;10210;52.284;9.892;2022-08-24T19:19:22;31.50;70.00
20102;DHT22;10210;52.284;9.892;2022-08-24T19:21:47;31.40;70.40
20102;DHT22;10210;52.284;9.892;2022-08-24T19:24:22;31.40;70.40
20102;DHT22;10210;52.284;9.892;2022-08-24T19:26:52;31.30;70.80
20102;DHT22;10210;52.284;9.892;2022-08-24T19:29:20;31.30;71.10
20102;DHT22;10210;52.284;9.892;2022-08-24T19:31:46;31.20;71.40